11 augustus 2022

Tijd Code Weer Temp. Zicht Plafond Wind METAR/SPECI
19:25
V
22 °C 10 km+ - 060° 060° 12 kt METAR EHMA 111725Z AUTO 06012KT 9999 NCD 22/16 Q1022
18:55
V
22 °C 10 km+ - 060° 060° 11 kt METAR EHMA 111655Z AUTO 06011KT 9999 NCD 22/17 Q1022
18:25
V
22 °C 10 km+ - 060° 060° 12 kt METAR EHMA 111625Z AUTO 06012KT 9999 NCD 22/17 Q1022
17:55
V
21 °C 10 km+ - 050° 050° 12 kt METAR EHMA 111555Z AUTO 05012KT 9999 NCD 21/17 Q1023
17:25
V
21 °C 10 km+ - 050° 050° 13 kt METAR EHMA 111525Z AUTO 05013KT 9999 NCD 21/17 Q1023
16:55
V
21 °C 10 km+ - 040° 040° 13 kt METAR EHMA 111455Z AUTO 04013KT 9999 NCD 21/16 Q1023
16:25
V
21 °C 10 km+ - 030° 030° 12 kt METAR EHMA 111425Z AUTO 03012KT 9999 NCD 21/17 Q1023
15:55
V
21 °C 10 km+ - 040° 040° 12 kt METAR EHMA 111355Z AUTO 04012KT 9999 NCD 21/17 Q1023
14:55
V
21 °C 10 km+ - 030° 030° 10 kt METAR EHMA 111255Z AUTO 03010KT 9999 NCD 21/18 Q1024
14:25
V
21 °C 10 km+ - 040° 040° 11 kt METAR EHMA 111225Z AUTO 04011KT 9999 NCD 21/17 Q1024
13:55
V
20 °C 10 km+ - 030° 030° 10 kt METAR EHMA 111155Z AUTO 03010KT 9999 NCD 20/18 Q1024
13:25
V
20 °C 10 km+ - 040° 040° 9 kt METAR EHMA 111125Z AUTO 04009KT 9999 NCD 20/17 Q1024
12:55
V
21 °C 10 km+ - 050° 050° 8 kt METAR EHMA 111055Z AUTO 05008KT 9999 NCD 21/17 Q1024
12:25
V
21 °C 10 km+ - 070° 070° 8 kt METAR EHMA 111025Z AUTO 07008KT 9999 NCD 21/18 Q1024
11:55
V
21 °C 10 km+ - 080° 080° 6 kt METAR EHMA 110955Z AUTO 08006KT 020V130 9999 NCD 21/18 Q1024
11:25
V
21 °C 10 km+ - 080° 080° 6 kt METAR EHMA 110925Z AUTO 08006KT 360V120 9999 NCD 21/18 Q1024
10:55
V
21 °C 10 km+ - 080° 080° 7 kt METAR EHMA 110855Z AUTO 08007KT 050V120 9999 NCD 21/18 Q1024
10:25
V
20 °C 10 km+ - 080° 080° 6 kt METAR EHMA 110825Z AUTO 08006KT 010V130 9999 NCD 20/18 Q1024
09:55
V
20 °C 10 km+ - 080° 080° 6 kt METAR EHMA 110755Z AUTO 08006KT 040V130 9999 NCD 20/19 Q1024
09:25
V
20 °C 10 km+ - 060° 060° 7 kt METAR EHMA 110725Z AUTO 06007KT 9999 NCD 20/19 Q1024
08:55
V
20 °C 10 km+ - 080° 080° 6 kt METAR EHMA 110655Z AUTO 08006KT 050V130 9999 NCD 20/19 Q1024
08:25
V
20 °C 10 km+ - 080° 080° 7 kt METAR EHMA 110625Z AUTO 08007KT 9999 NCD 20/18 Q1024
07:55
V
20 °C 10 km+ - 090° 090° 7 kt METAR EHMA 110555Z AUTO 09007KT 020V120 9999 NCD 20/18 Q1024
07:25
V
20 °C 10 km+ - 080° 080° 6 kt METAR EHMA 110525Z AUTO 08006KT 9999 NCD 20/18 Q1024
06:55
V
20 °C 10 km+ - 080° 080° 6 kt METAR EHMA 110455Z AUTO 08006KT 060V120 9999 FEW015CB 20/18 Q1024
06:25
V
20 °C 10 km+ - 100° 100° 9 kt METAR EHMA 110425Z AUTO 10009KT 9999 NCD 20/17 Q1024
05:55
V
19 °C 10 km+ - 100° 100° 10 kt METAR EHMA 110355Z AUTO 10010KT 9999 NCD 19/17 Q1024
05:25
V
20 °C 10 km+ - 110° 110° 10 kt METAR EHMA 110325Z AUTO 11010KT 9999 NCD 20/17 Q1024
04:55
V
20 °C 10 km+ - 100° 100° 10 kt METAR EHMA 110255Z AUTO 10010KT 9999 NCD 20/17 Q1024
04:25
V
20 °C 10 km+ - 100° 100° 10 kt METAR EHMA 110225Z AUTO 10010KT 9999 NCD 20/17 Q1024
03:55
V
20 °C 10 km+ - 100° 100° 11 kt METAR EHMA 110155Z AUTO 10011KT 9999 NCD 20/17 Q1025
03:25
V
20 °C 10 km+ - 090° 090° 10 kt METAR EHMA 110125Z AUTO 09010KT 9999 NCD 20/17 Q1025
02:55
V
20 °C 10 km+ - 090° 090° 11 kt METAR EHMA 110055Z AUTO 09011KT 9999 NCD 20/17 Q1025
02:25
V
19 °C 10 km+ - 090° 090° 11 kt METAR EHMA 110025Z AUTO 09011KT 9999 NCD 19/17 Q1025
01:55
V
19 °C 10 km+ - 080° 080° 12 kt METAR EHMA 102355Z AUTO 08012KT 9999 NCD 19/17 Q1025
01:25
V
19 °C 10 km+ - 080° 080° 12 kt METAR EHMA 102325Z AUTO 08012KT 9999 NCD 19/17 Q1025
00:55
V
19 °C 10 km+ - 080° 080° 12 kt METAR EHMA 102255Z AUTO 08012KT 050V120 9999 NCD 19/17 Q1025
00:25
V
19 °C 10 km+ - 070° 070° 11 kt METAR EHMA 102225Z AUTO 07011KT 9999 NCD 19/17 Q1025

10 augustus 2022

Tijd Code Weer Temp. Zicht Plafond Wind METAR/SPECI
23:55
V
19 °C 10 km+ - 060° 060° 11 kt METAR EHMA 102155Z AUTO 06011KT 9999 NCD 19/17 Q1025
23:25
V
19 °C 10 km+ - 050° 050° 12 kt METAR EHMA 102125Z AUTO 05012KT 9999 NCD 19/17 Q1025
22:55
V
19 °C 10 km+ - 060° 060° 12 kt METAR EHMA 102055Z AUTO 06012KT 9999 NCD 19/17 Q1025
22:25
V
19 °C 10 km+ - 050° 050° 12 kt METAR EHMA 102025Z AUTO 05012KT 9999 NCD 19/17 Q1025
21:55
V
19 °C 10 km+ - 060° 060° 12 kt METAR EHMA 101955Z AUTO 06012KT 9999 NCD 19/17 Q1025
21:25
V
20 °C 10 km+ - 060° 060° 11 kt METAR EHMA 101925Z AUTO 06011KT 9999 NCD 20/16 Q1025
20:55
V
20 °C 10 km+ - 050° 050° 10 kt METAR EHMA 101855Z AUTO 05010KT 9999 NCD 20/16 Q1025
20:25
V
20 °C 10 km+ - 060° 060° 12 kt METAR EHMA 101825Z AUTO 06012KT 9999 NCD 20/16 Q1025
19:55
V
20 °C 10 km+ - 060° 060° 12 kt METAR EHMA 101755Z AUTO 06012KT 9999 NCD 20/17 Q1025
19:25
V
20 °C 10 km+ - 060° 060° 13 kt METAR EHMA 101725Z AUTO 06013KT 9999 NCD 20/17 Q1025
18:55
V
20 °C 10 km+ - 050° 050° 13 kt METAR EHMA 101655Z AUTO 05013KT 9999 NCD 20/16 Q1026
18:25
V
20 °C 10 km+ - 050° 050° 13 kt METAR EHMA 101625Z AUTO 05013KT 9999 NCD 20/17 Q1026
17:55
V
20 °C 10 km+ - 050° 050° 14 kt METAR EHMA 101555Z AUTO 05014KT 9999 NCD 20/17 Q1026
17:25
V
19 °C 10 km+ - 050° 050° 13 kt METAR EHMA 101525Z AUTO 05013KT 9999 NCD 19/17 Q1026
16:55
V
19 °C 10 km+ - 040° 040° 12 kt METAR EHMA 101455Z AUTO 04012KT 9999 NCD 19/17 Q1026
16:25
V
20 °C 10 km+ - 050° 050° 11 kt METAR EHMA 101425Z AUTO 05011KT 9999 NCD 20/17 Q1027
15:55
V
19 °C 10 km+ - 050° 050° 11 kt METAR EHMA 101355Z AUTO 05011KT 9999 NCD 19/17 Q1027
15:25
V
19 °C 10 km+ - 050° 050° 12 kt METAR EHMA 101325Z AUTO 05012KT 9999 NCD 19/17 Q1027
14:55
V
19 °C 10 km+ - 060° 060° 11 kt METAR EHMA 101255Z AUTO 06011KT 9999 NCD 19/17 Q1027
14:25
V
19 °C 10 km+ - 050° 050° 11 kt METAR EHMA 101225Z AUTO 05011KT 9999 NCD 19/17 Q1027
13:55
V
19 °C 10 km+ - 060° 060° 11 kt METAR EHMA 101155Z AUTO 06011KT 9999 NCD 19/17 Q1028
13:25
V
19 °C 10 km+ - 060° 060° 11 kt METAR EHMA 101125Z AUTO 06011KT 9999 NCD 19/16 Q1028
12:55
V
19 °C 10 km+ - 050° 050° 10 kt METAR EHMA 101055Z AUTO 05010KT 9999 NCD 19/16 Q1028
12:25
V
19 °C 10 km+ - 060° 060° 10 kt METAR EHMA 101025Z AUTO 06010KT 9999 NCD 19/17 Q1028
11:55
V
19 °C 10 km+ - 070° 070° 9 kt METAR EHMA 100955Z AUTO 07009KT 050V110 9999 FEW009 19/17 Q1028
11:25
V
19 °C 10 km+ - 070° 070° 10 kt METAR EHMA 100925Z AUTO 07010KT 040V120 9999 FEW009 19/16 Q1028
10:55
V
19 °C 10 km+ - 060° 060° 9 kt METAR EHMA 100855Z AUTO 06009KT 050V130 9999 FEW009 SCT010 19/16 Q1029
10:25
V
19 °C 10 km+ - 070° 070° 10 kt METAR EHMA 100825Z AUTO 07010KT 9999 FEW009 19/16 Q1029
09:55
V
19 °C 10 km+ - 070° 070° 9 kt METAR EHMA 100755Z AUTO 07009KT 9999 FEW009 19/16 Q1029
09:25
V
19 °C 10 km+ - 060° 060° 9 kt METAR EHMA 100725Z AUTO 06009KT 9999 FEW009 19/16 Q1029
08:55
L
19 °C 0 m - Var 000° 0 kt METAR EHMA 100655Z AUTO /////KT //// // NSC 19/16 Q1029
07:55
V
18 °C 10 km+ - 060° 060° 9 kt METAR EHMA 100555Z AUTO 06009KT 040V100 9999 FEW010 18/16 Q1028
07:25
V
18 °C 10 km+ - 050° 050° 9 kt METAR EHMA 100525Z AUTO 05009KT 9999 NCD 18/16 Q1028
06:55
V
18 °C 10 km+ - 060° 060° 9 kt METAR EHMA 100455Z AUTO 06009KT 9999 FEW010 18/16 Q1028
06:25
V
18 °C 10 km+ - 060° 060° 8 kt METAR EHMA 100425Z AUTO 06008KT 9999 FEW011 18/16 Q1028
05:55
V
18 °C 10 km+ - 070° 070° 8 kt METAR EHMA 100355Z AUTO 07008KT 050V110 9999 SCT012 SCT014 18/16 Q1028
05:25
V
18 °C 10 km+ - 080° 080° 8 kt METAR EHMA 100325Z AUTO 08008KT 9999 FEW012 18/16 Q1029
04:55
V
18 °C 10 km+ - 110° 110° 8 kt METAR EHMA 100255Z AUTO 11008KT 9999 SCT011 18/16 Q1029
04:25
M
18 °C 10 km+ 1.200 ft 100° 100° 8 kt METAR EHMA 100225Z AUTO 10008KT 040V130 9999 BKN012 18/16 Q1029
03:55
V
18 °C 10 km+ - 090° 090° 9 kt METAR EHMA 100155Z AUTO 09009KT 050V110 9999 FEW012 18/15 Q1029
03:25
V
18 °C 10 km+ - 080° 080° 8 kt METAR EHMA 100125Z AUTO 08008KT 030V120 9999 FEW012 18/15 Q1029
02:55
V
18 °C 10 km+ - 080° 080° 8 kt METAR EHMA 100055Z AUTO 08008KT 9999 FEW012 18/15 Q1029
02:25
V
18 °C 10 km+ - 070° 070° 7 kt METAR EHMA 100025Z AUTO 07007KT 040V120 9999 FEW011/// 18/15 Q1029
01:55
V
18 °C 10 km+ - 050° 050° 7 kt METAR EHMA 092355Z AUTO 05007KT 9999 FEW012 18/15 Q1029
01:25
V
18 °C 10 km+ - 050° 050° 8 kt METAR EHMA 092325Z AUTO 05008KT 9999 FEW013 18/15 Q1029
00:55
V
18 °C 10 km+ - 050° 050° 8 kt METAR EHMA 092255Z AUTO 05008KT 9999 FEW014 18/15 Q1029
00:25
V
18 °C 10 km+ - 040° 040° 8 kt METAR EHMA 092225Z AUTO 04008KT 9999 FEW015 18/15 Q1029

9 augustus 2022

Tijd Code Weer Temp. Zicht Plafond Wind METAR/SPECI
23:55
V
19 °C 10 km+ - 040° 040° 9 kt METAR EHMA 092155Z AUTO 04009KT 9999 FEW015 19/15 Q1029
23:25
V
19 °C 10 km+ - 060° 060° 8 kt METAR EHMA 092125Z AUTO 06008KT 010V100 9999 NSC 19/15 Q1029
22:55
V
19 °C 10 km+ - 050° 050° 8 kt METAR EHMA 092055Z AUTO 05008KT 030V100 9999 NSC 19/15 Q1029
22:25
V
19 °C 10 km+ - 050° 050° 8 kt METAR EHMA 092025Z AUTO 05008KT 9999 NSC 19/15 Q1029
21:55
V
19 °C 10 km+ - 040° 040° 8 kt METAR EHMA 091955Z AUTO 04008KT 9999 NSC 19/15 Q1029
21:25
V
19 °C 10 km+ - 040° 040° 8 kt METAR EHMA 091925Z AUTO 04008KT 9999 NSC 19/14 Q1029
20:55
V
19 °C 10 km+ - 030° 030° 8 kt METAR EHMA 091855Z AUTO 03008KT 9999 NSC 19/14 Q1029
20:25
V
19 °C 10 km+ - 030° 030° 8 kt METAR EHMA 091825Z AUTO 03008KT 9999 NSC 19/14 Q1029
19:55
V
19 °C 10 km+ - 030° 030° 8 kt METAR EHMA 091755Z AUTO 03008KT 9999 NSC 19/14 Q1029
19:25
V
19 °C 10 km+ - 020° 020° 11 kt METAR EHMA 091725Z AUTO 02011KT 9999 NSC 19/14 Q1029
18:55
V
19 °C 10 km+ - 020° 020° 10 kt METAR EHMA 091655Z AUTO 02010KT 340V050 9999 NCD 19/12 Q1029
18:25
V
19 °C 10 km+ - 010° 010° 11 kt METAR EHMA 091625Z AUTO 01011KT 330V030 9999 NSC 19/12 Q1029
17:55
V
19 °C 10 km+ - 020° 020° 10 kt METAR EHMA 091555Z AUTO 02010KT 9999 NSC 19/12 Q1030
17:25
V
19 °C 10 km+ - 020° 020° 9 kt METAR EHMA 091525Z AUTO 02009KT 320V040 9999 NSC 19/12 Q1030
16:55
V
19 °C 10 km+ - Var Var 7 kt METAR EHMA 091455Z AUTO VRB07KT 9999 NSC 19/12 Q1030
Oudere gegevens

Met cookies volgen wij en derde partijen jouw internetgedrag binnen onze site. Als je verdergaat gaan we ervan uit dat je dit goedvindt. Meer info